Impacts TAF Board
For situational awareness. Not to be used for flight planning purposes.
IDs:

KBBD - Brady/Curtis Fld, TX, US

Issued at 1127 UTC 13 Dec 2019
Updated at 1411 UTC 13 Dec 2019
Potential Impact None Slight Moderate High
Time1355Z 13/15Z 13/16Z 13/17Z 13/18Z 13/19Z 13/20Z 13/21Z 13/22Z 13/23Z 14/00Z 14/01Z 14/02Z 14/03Z>>
Type OBS PRVL PRVL PRVL PRVL PRVL PRVL PRVL PRVL PRVL PRVL PRVL PRVL PRVL
VIS 10 >6 >6 >6 >6 >6 >6 >6 >6 >6 >6 >6 >6 >6
CIG -- -- -- -- -- -- -- -- -- -- -- -- -- --
Cover CLR FEW FEW FEW FEW FEW FEW FEW FEW FEW FEW FEW FEW FEW
FltCat VFR VFR VFR VFR VFR VFR VFR VFR VFR VFR VFR VFR VFR VFR
WX -- -- -- -- -- -- -- -- -- -- -- -- -- --
WDir 250 290 290 290 290 290 290 290 290 290 290 290 290 290
WSpd 9 14 14 14 14 14 14 14 14 14 5 5 5 5
WGst -- 22 22 22 22 22 22 22 22 22 -- -- -- --
Raw TAF
KBBD 131127Z 1312/1412 25010KT P6SM FEW250
  FM131500 29014G22KT P6SM FEW250
  FM140000 29005KT P6SM FEW250


Raw METAR
KBBD 131355Z AUTO 25009KT 10SM CLR 07/04 A2992 RMK AO2
KBBD 131335Z AUTO 26009KT 10SM CLR 07/03 A2993 RMK AO2
KBBD 131315Z AUTO 26010KT 10SM CLR 07/04 A2995 RMK AO2
KBBD 131255Z AUTO 26009KT 10SM CLR 08/04 A2993 RMK AO2
KBBD 131235Z AUTO 26007KT 10SM CLR 08/04 A2992 RMK AO2
KBBD 131215Z AUTO 25010KT 10SM CLR 08/04 A2993 RMK AO2
KBBD 131155Z AUTO 25005KT 10SM CLR 07/04 A2993 RMK AO2
KBBD 131135Z AUTO 24006KT 10SM CLR 08/04 A2992 RMK AO2

METAR Board
Radar Display
Forecast Discussion
For situational awareness. Not to be used for flight planning purposes.